Time;durP1;ratioP1;P1;durP2;ratioP2;P2;SDS_P1;SDS_P2;PMS_P1;PMS_P2;Temp;Humidity;BMP_temperature;BMP_pressure;BME280_temperature;BME280_humidity;BME280_pressure;Samples;Min_cycle;Max_cycle;Signal;HPM_P1;HPM_P2
2023/09/10 00:02:05;;;;;;;3.37;1.00;;;;;;;19.75;43.69;99282.09;5074233;28;20177;-86
2023/09/10 00:04:32;;;;;;;4.03;0.90;;;;;;;19.78;43.52;99281.00;5074295;28;20695;-86
2023/09/10 00:06:58;;;;;;;3.03;1.10;;;;;;;19.79;43.44;99280.84;5074484;28;20263;-86
2023/09/10 00:09:25;;;;;;;3.63;1.07;;;;;;;19.83;43.40;99268.97;5073735;28;20284;-86
2023/09/10 00:11:52;;;;;;;1.77;0.90;;;;;;;19.83;43.56;99276.94;5074021;28;20177;-86
2023/09/10 00:14:18;;;;;;;4.67;0.73;;;;;;;19.80;43.52;99276.38;5056509;28;20544;-86
2023/09/10 00:16:44;;;;;;;5.33;1.20;;;;;;;19.77;43.82;99266.84;5073895;28;20637;-86
2023/09/10 00:19:12;;;;;;;2.47;0.63;;;;;;;19.71;44.05;99263.88;5073926;28;20188;-86
2023/09/10 00:21:38;;;;;;;3.20;1.07;;;;;;;19.64;44.29;99268.91;5073987;28;20177;-86
2023/09/10 00:24:05;;;;;;;2.70;1.10;;;;;;;19.56;44.26;99266.91;5073880;28;20210;-86
2023/09/10 00:26:32;;;;;;;2.63;1.13;;;;;;;19.52;44.49;99267.31;5073863;28;20212;-86
2023/09/10 00:28:57;;;;;;;2.60;0.80;;;;;;;19.46;44.21;99267.84;5073363;28;20173;-86
2023/09/10 00:31:24;;;;;;;3.57;1.40;;;;;;;19.38;44.29;99265.84;5073730;28;20240;-86
2023/09/10 00:33:51;;;;;;;2.40;1.23;;;;;;;19.37;43.93;99268.59;5073954;28;20208;-86
2023/09/10 00:36:16;;;;;;;3.20;1.10;;;;;;;19.40;44.07;99257.72;5073525;28;20200;-86
2023/09/10 00:38:43;;;;;;;3.77;1.30;;;;;;;19.37;44.43;99261.50;5073617;28;20645;-86
2023/09/10 00:41:10;;;;;;;4.90;1.73;;;;;;;19.35;44.53;99262.56;5073338;28;20235;-86
2023/09/10 00:43:36;;;;;;;3.43;1.10;;;;;;;19.29;44.91;99257.78;5073621;28;20208;-86
2023/09/10 00:46:03;;;;;;;10.47;1.37;;;;;;;19.18;45.36;99260.53;5073320;28;20204;-86
2023/09/10 00:48:32;;;;;;;2.27;0.83;;;;;;;19.11;45.49;99249.59;5073271;28;20181;-86
2023/09/10 00:50:58;;;;;;;2.40;0.80;;;;;;;19.15;45.33;99251.03;5073347;28;20226;-86
2023/09/10 00:53:26;;;;;;;4.17;1.23;;;;;;;19.14;45.10;99253.78;5073303;28;20241;-86
2023/09/10 00:55:52;;;;;;;5.23;1.40;;;;;;;19.13;45.32;99252.13;5073702;28;20177;-86
2023/09/10 00:58:19;;;;;;;5.33;1.30;;;;;;;19.10;45.64;99247.06;5073312;28;20205;-86
2023/09/10 01:00:46;;;;;;;6.60;0.90;;;;;;;19.08;45.76;99257.00;5072845;28;20194;-86
2023/09/10 01:03:14;;;;;;;2.47;1.03;;;;;;;19.02;46.01;99251.19;5055531;28;20753;-86
2023/09/10 01:05:41;;;;;;;2.73;0.90;;;;;;;19.02;46.27;99245.88;5073793;28;20255;-85
2023/09/10 01:08:08;;;;;;;1.97;0.67;;;;;;;19.03;46.20;99252.91;5073068;28;20190;-86
2023/09/10 01:11:01;;;;;;;5.83;1.17;;;;;;;18.96;46.60;99242.94;5073155;28;20199;-86
2023/09/10 01:14:01;;;;;;;5.87;1.13;;;;;;;18.91;47.06;99245.97;5072407;28;20213;-86
2023/09/10 01:16:42;;;;;;;2.37;0.87;;;;;;;18.86;47.13;99240.22;5073464;28;20175;-86
2023/09/10 01:19:33;;;;;;;2.13;0.83;;;;;;;18.86;46.96;99245.53;5055399;28;20216;-86
2023/09/10 01:22:26;;;;;;;5.43;1.17;;;;;;;18.86;46.71;99250.84;5073115;28;20161;-86
2023/09/10 01:24:54;;;;;;;3.63;1.10;;;;;;;18.86;46.78;99240.22;5028991;28;20261;-86
2023/09/10 01:27:21;;;;;;;3.00;1.07;;;;;;;18.87;46.63;99244.53;5073053;28;20201;-86
2023/09/10 01:29:48;;;;;;;4.17;1.07;;;;;;;18.86;46.46;99244.69;5072740;28;20268;-86
2023/09/10 01:32:38;;;;;;;6.63;1.10;;;;;;;18.85;46.47;99238.53;5072998;28;20173;-86
2023/09/10 01:35:33;;;;;;;7.33;0.90;;;;;;;18.79;46.53;99238.19;5073281;28;20177;-86
2023/09/10 01:38:15;;;;;;;2.00;0.80;;;;;;;18.75;46.91;99242.94;5035287;28;20182;-86
2023/09/10 01:40:51;;;;;;;4.80;1.20;;;;;;;18.69;46.79;99238.13;5068100;28;20213;-86
2023/09/10 01:43:18;;;;;;;4.30;1.40;;;;;;;18.59;47.52;99242.53;5073188;28;20609;-86
2023/09/10 01:45:47;;;;;;;4.30;1.27;;;;;;;18.57;47.19;99244.47;5072388;28;20707;-86
2023/09/10 01:48:12;;;;;;;4.33;1.27;;;;;;;18.62;46.83;99246.75;5072863;28;20176;-85
2023/09/10 01:50:38;;;;;;;3.40;0.80;;;;;;;18.64;46.77;99243.00;5054990;28;20177;-86
2023/09/10 01:53:05;;;;;;;4.50;1.67;;;;;;;18.62;46.74;99239.63;5055106;28;20180;-86
2023/09/10 01:55:30;;;;;;;3.27;1.07;;;;;;;18.63;46.62;99243.13;5072459;28;20177;-86
2023/09/10 01:57:58;;;;;;;5.50;1.40;;;;;;;18.63;46.72;99241.28;5074383;28;20177;-86
2023/09/10 02:00:25;;;;;;;3.20;1.17;;;;;;;18.62;46.69;99244.09;5076902;28;20193;-86
2023/09/10 02:02:50;;;;;;;1.93;0.80;;;;;;;18.57;47.39;99241.81;5076399;28;20175;-86
2023/09/10 02:05:17;;;;;;;4.50;0.90;;;;;;;18.55;47.19;99245.59;5076558;28;20185;-86
2023/09/10 02:07:42;;;;;;;2.33;1.07;;;;;;;18.55;47.27;99241.13;5077060;28;20177;-86
2023/09/10 02:10:08;;;;;;;5.50;0.83;;;;;;;18.53;47.32;99242.19;5058683;28;20176;-86
2023/09/10 02:12:34;;;;;;;5.10;1.10;;;;;;;18.45;47.97;99245.44;5058843;28;20204;-86
2023/09/10 02:15:03;;;;;;;2.13;0.80;;;;;;;18.26;49.02;99248.78;5076239;28;20185;-86
2023/09/10 02:17:30;;;;;;;6.03;1.10;;;;;;;18.05;49.54;99252.38;5076356;28;20605;-85
2023/09/10 02:19:57;;;;;;;2.80;0.60;;;;;;;18.13;48.91;99250.75;5076244;28;20552;-86
2023/09/10 02:22:23;;;;;;;2.83;1.03;;;;;;;18.18;48.48;99245.94;5075926;28;20192;-86
2023/09/10 02:24:51;;;;;;;5.70;1.37;;;;;;;18.22;48.62;99249.16;5075984;28;20188;-86
2023/09/10 02:27:18;;;;;;;5.63;0.87;;;;;;;18.21;49.15;99244.84;5076545;28;20271;-86
2023/09/10 02:29:44;;;;;;;3.30;1.13;;;;;;;18.35;49.13;99249.84;5063876;28;20182;-86
2023/09/10 02:32:10;;;;;;;2.13;0.90;;;;;;;18.46;49.07;99244.50;5056306;28;20173;-86
2023/09/10 02:34:37;;;;;;;2.00;0.97;;;;;;;18.61;49.09;99245.91;5038423;28;20623;-86
2023/09/10 02:37:02;;;;;;;3.27;1.10;;;;;;;18.65;49.29;99251.81;5070799;28;20643;-86
2023/09/10 02:39:28;;;;;;;3.23;0.73;;;;;;;18.56;48.51;99250.75;5058073;28;20201;-85
2023/09/10 02:41:53;;;;;;;1.83;0.80;;;;;;;18.57;48.20;99244.47;5053074;28;20233;-85
2023/09/10 02:44:19;;;;;;;4.13;1.40;;;;;;;18.64;47.94;99260.72;5034955;28;20290;-86
2023/09/10 02:46:45;;;;;;;3.50;1.00;;;;;;;18.62;47.95;99247.59;5036138;28;20593;-86
2023/09/10 02:49:12;;;;;;;4.37;0.90;;;;;;;18.58;47.95;99251.47;5053245;28;20181;-86
2023/09/10 02:51:38;;;;;;;3.60;1.50;;;;;;;18.54;48.57;99242.06;5055698;28;20194;-86
2023/09/10 02:54:04;;;;;;;1.77;0.83;;;;;;;18.51;48.57;99250.28;5055732;28;20260;-85
2023/09/10 02:56:31;;;;;;;2.77;1.20;;;;;;;18.52;48.42;99241.38;5055633;28;20620;-86
2023/09/10 02:58:57;;;;;;;3.90;1.20;;;;;;;18.50;49.25;99245.94;5055191;28;20565;-86
2023/09/10 03:01:24;;;;;;;1.93;0.77;;;;;;;18.55;49.22;99240.28;5055785;28;20182;-86
2023/09/10 03:03:51;;;;;;;3.97;0.93;;;;;;;18.54;49.37;99249.19;5055820;28;20261;-85
2023/09/10 03:06:17;;;;;;;2.23;0.90;;;;;;;18.54;49.17;99252.69;5055916;28;20596;-86
2023/09/10 03:08:44;;;;;;;4.37;1.20;;;;;;;18.53;49.12;99245.69;5054016;28;20240;-86
2023/09/10 03:11:11;;;;;;;2.80;0.90;;;;;;;18.50;49.47;99248.59;5054310;28;20181;-86
2023/09/10 03:13:38;;;;;;;5.87;1.17;;;;;;;18.46;50.19;99264.88;5055290;28;20187;-86
2023/09/10 03:16:04;;;;;;;4.00;1.40;;;;;;;18.37;50.66;99254.06;5055134;28;20261;-86
2023/09/10 03:18:31;;;;;;;3.20;1.27;;;;;;;18.24;50.95;99252.53;5037931;28;20186;-85
2023/09/10 03:21:01;;;;;;;5.53;1.13;;;;;;;18.29;50.50;99258.31;5035445;28;20206;-86
2023/09/10 03:23:26;;;;;;;6.80;1.10;;;;;;;18.36;50.33;99262.16;5040014;28;20644;-86
2023/09/10 03:25:53;;;;;;;5.80;1.10;;;;;;;18.37;49.93;99259.34;5055095;28;20269;-86
2023/09/10 03:28:20;;;;;;;5.23;1.00;;;;;;;18.38;50.21;99257.56;5055248;28;20209;-86
2023/09/10 03:30:45;;;;;;;9.33;2.17;;;;;;;18.46;50.22;99252.44;5054819;28;20266;-86
2023/09/10 03:33:11;;;;;;;5.17;0.93;;;;;;;18.38;51.14;99254.91;5053972;28;20674;-86
2023/09/10 03:35:38;;;;;;;3.70;1.10;;;;;;;18.40;51.15;99255.59;5053766;28;20204;-86
2023/09/10 03:38:03;;;;;;;1.70;0.70;;;;;;;18.39;51.17;99259.25;5054798;28;20189;-86
2023/09/10 03:40:29;;;;;;;3.23;1.03;;;;;;;18.40;50.98;99267.06;5062022;28;20224;-86
2023/09/10 03:42:55;;;;;;;8.93;1.40;;;;;;;18.48;50.07;99269.13;5074711;28;20231;-86
2023/09/10 03:45:21;;;;;;;3.67;1.13;;;;;;;18.65;48.07;99260.63;5074989;28;20189;-86
2023/09/10 03:47:46;;;;;;;5.43;1.00;;;;;;;18.63;47.78;99264.38;5074274;28;20334;-86
2023/09/10 03:50:15;;;;;;;2.30;1.00;;;;;;;18.79;47.43;99260.28;5074529;28;20514;-86
2023/09/10 03:52:41;;;;;;;3.63;0.93;;;;;;;18.79;47.46;99254.97;5074479;28;20165;-86
2023/09/10 03:55:07;;;;;;;2.50;0.80;;;;;;;18.95;46.85;99262.47;5067677;28;20197;-87
2023/09/10 03:57:34;;;;;;;7.17;1.00;;;;;;;19.00;46.66;99261.13;5036877;28;20181;-86
2023/09/10 03:59:59;;;;;;;3.37;1.30;;;;;;;19.11;46.13;99254.91;5036782;28;20205;-86
2023/09/10 04:02:26;;;;;;;3.20;1.20;;;;;;;19.16;46.07;99263.31;5055455;28;20204;-86
2023/09/10 04:04:52;;;;;;;4.80;1.30;;;;;;;19.26;45.44;99263.38;5056398;28;20184;-86
2023/09/10 04:07:18;;;;;;;4.00;1.30;;;;;;;19.36;45.36;99269.59;5074224;28;20181;-86
2023/09/10 04:09:45;;;;;;;2.47;1.00;;;;;;;19.53;45.15;99266.31;5056764;28;20177;-86
2023/09/10 04:12:11;;;;;;;2.80;0.80;;;;;;;19.55;45.15;99267.03;5074116;28;20183;-86
2023/09/10 04:14:37;;;;;;;2.10;0.97;;;;;;;19.65;44.63;99262.63;5073973;28;20186;-87
2023/09/10 04:17:04;;;;;;;2.33;0.87;;;;;;;19.77;44.31;99272.16;5074019;28;20169;-86
2023/09/10 04:19:29;;;;;;;2.20;0.90;;;;;;;19.83;44.05;99274.28;5073732;28;20202;-86
2023/09/10 04:21:56;;;;;;;7.17;1.10;;;;;;;19.87;44.06;99269.53;5055760;28;20192;-86
2023/09/10 04:24:23;;;;;;;5.37;1.63;;;;;;;19.94;43.98;99265.38;5074130;28;20177;-86
2023/09/10 04:26:49;;;;;;;3.97;1.23;;;;;;;19.95;43.82;99272.34;5041432;28;20188;-86
2023/09/10 04:29:15;;;;;;;2.73;0.97;;;;;;;19.97;43.70;99265.06;5053684;28;20237;-86
2023/09/10 04:31:43;;;;;;;4.83;1.00;;;;;;;19.95;44.15;99273.19;5065509;28;20256;-86
2023/09/10 04:34:09;;;;;;;2.27;1.00;;;;;;;20.01;43.82;99266.50;5074166;28;20176;-87
2023/09/10 04:36:36;;;;;;;2.10;0.90;;;;;;;19.99;44.55;99273.78;5073323;28;20183;-86
2023/09/10 04:39:08;;;;;;;4.70;1.30;;;;;;;20.02;44.24;99265.53;5073457;28;20259;-86
2023/09/10 04:41:36;;;;;;;12.90;1.00;;;;;;;20.13;44.07;99263.56;5073529;28;20211;-86
2023/09/10 04:44:03;;;;;;;11.23;1.60;;;;;;;20.22;44.04;99267.22;5074112;28;20686;-86
2023/09/10 04:46:30;;;;;;;2.77;1.00;;;;;;;20.33;43.84;99267.16;5055653;28;20183;-86
2023/09/10 04:49:00;;;;;;;5.90;1.70;;;;;;;20.35;43.57;99269.66;5073465;28;20184;-86
2023/09/10 04:51:25;;;;;;;3.10;1.03;;;;;;;20.37;43.36;99265.88;5055584;28;20631;-86
2023/09/10 04:53:52;;;;;;;4.77;1.80;;;;;;;20.37;42.64;99265.03;5073668;28;20262;-86
2023/09/10 04:56:17;;;;;;;4.53;1.57;;;;;;;20.43;43.23;99262.66;5073470;28;20185;-86
2023/09/10 04:58:44;;;;;;;5.93;1.37;;;;;;;20.56;42.77;99263.22;5055677;28;20263;-86
2023/09/10 05:01:11;;;;;;;5.30;1.40;;;;;;;20.72;42.22;99257.31;5073458;28;20196;-85
2023/09/10 05:03:36;;;;;;;8.00;2.47;;;;;;;20.72;42.19;99260.00;5073077;28;20211;-86
2023/09/10 05:06:05;;;;;;;7.57;2.67;;;;;;;20.83;41.86;99260.66;5055558;28;20283;-86
2023/09/10 05:08:31;;;;;;;10.07;1.77;;;;;;;21.04;41.80;99268.47;5072929;28;20567;-86
2023/09/10 05:10:57;;;;;;;2.60;1.07;;;;;;;21.18;41.39;99268.06;5073172;28;20621;-86
2023/09/10 05:13:24;;;;;;;3.83;1.00;;;;;;;21.33;40.96;99266.63;5073172;28;20234;-86
2023/09/10 05:15:49;;;;;;;5.30;1.77;;;;;;;21.56;40.69;99267.13;5072918;28;20181;-87
2023/09/10 05:18:16;;;;;;;3.37;1.40;;;;;;;21.75;40.36;99276.88;5038835;28;20200;-86
2023/09/10 05:20:43;;;;;;;4.10;1.30;;;;;;;21.90;40.00;99275.41;5055331;28;20204;-86
2023/09/10 05:23:09;;;;;;;3.63;0.90;;;;;;;22.07;40.03;99273.75;5072899;28;20618;-86
2023/09/10 05:25:36;;;;;;;2.90;0.80;;;;;;;22.25;39.93;99275.47;5072641;28;20204;-87
2023/09/10 05:28:04;;;;;;;3.00;0.90;;;;;;;22.28;39.65;99275.16;5072999;28;20256;-87
2023/09/10 05:30:31;;;;;;;9.90;3.97;;;;;;;22.45;39.39;99278.84;5055363;28;20169;-86
2023/09/10 05:32:57;;;;;;;4.70;1.90;;;;;;;22.59;39.31;99283.66;5061025;28;20191;-86
2023/09/10 05:35:24;;;;;;;3.77;1.23;;;;;;;22.76;38.85;99277.50;5061897;28;20598;-87
2023/09/10 05:37:51;;;;;;;2.60;0.83;;;;;;;22.73;38.65;99277.81;5061923;28;20177;-87
2023/09/10 05:40:16;;;;;;;2.73;0.80;;;;;;;22.85;38.08;99281.09;5061645;28;20245;-87
2023/09/10 05:42:44;;;;;;;2.20;1.10;;;;;;;22.98;37.98;99279.69;5062730;28;20192;-87
2023/09/10 05:45:10;;;;;;;4.17;0.97;;;;;;;23.18;38.09;99283.00;5079401;28;20190;-87
2023/09/10 05:47:36;;;;;;;2.00;1.00;;;;;;;23.37;37.15;99280.16;5061652;28;20539;-87
2023/09/10 05:50:04;;;;;;;3.30;1.07;;;;;;;23.59;37.13;99284.97;5079412;28;20263;-86
2023/09/10 05:52:29;;;;;;;2.37;1.00;;;;;;;23.66;36.48;99294.03;5079407;28;20173;-87
2023/09/10 05:54:55;;;;;;;4.43;1.33;;;;;;;23.82;36.86;99294.09;5079059;28;20258;-87
2023/09/10 05:57:20;;;;;;;4.63;1.17;;;;;;;23.85;36.42;99291.13;5078356;28;20209;-87
2023/09/10 05:59:47;;;;;;;7.60;3.30;;;;;;;24.03;36.82;99300.91;5059299;28;20410;-86
2023/09/10 06:02:13;;;;;;;3.83;0.97;;;;;;;24.37;35.96;99297.16;5075787;28;20249;-86
2023/09/10 06:04:40;;;;;;;2.50;1.37;;;;;;;24.67;36.01;99301.09;5061654;28;20180;-87
2023/09/10 06:07:06;;;;;;;6.73;1.70;;;;;;;24.94;35.07;99295.44;5061540;28;20177;-87
2023/09/10 06:09:33;;;;;;;2.67;0.90;;;;;;;25.10;34.20;99302.66;5061473;28;20300;-87
2023/09/10 06:12:02;;;;;;;1.93;0.80;;;;;;;25.31;33.87;99308.34;5079490;28;20666;-87
2023/09/10 06:14:30;;;;;;;2.97;1.00;;;;;;;25.53;34.61;99312.16;5059298;28;20182;-86
2023/09/10 06:16:56;;;;;;;2.33;0.80;;;;;;;25.76;33.82;99309.59;5059225;28;20596;-86
2023/09/10 06:19:22;;;;;;;2.20;0.73;;;;;;;26.07;33.61;99313.19;5047071;28;20196;-87
2023/09/10 06:21:49;;;;;;;2.23;0.90;;;;;;;26.47;32.80;99309.44;5061526;28;20181;-87
2023/09/10 06:24:15;;;;;;;2.20;0.80;;;;;;;26.77;32.24;99305.94;5079358;28;20270;-86
2023/09/10 06:26:42;;;;;;;3.83;1.20;;;;;;;27.01;31.86;99321.91;5078980;28;20185;-87
2023/09/10 06:29:08;;;;;;;1.30;0.60;;;;;;;27.31;31.63;99320.94;5078955;28;20238;-87
2023/09/10 06:31:33;;;;;;;4.37;1.20;;;;;;;27.60;31.49;99322.03;5078880;28;20176;-87
2023/09/10 06:33:58;;;;;;;4.03;1.67;;;;;;;27.93;31.05;99321.50;5079080;28;20187;-87
2023/09/10 06:36:26;;;;;;;5.90;1.53;;;;;;;28.29;30.68;99326.97;5061990;28;20285;-87
2023/09/10 06:38:51;;;;;;;2.80;0.90;;;;;;;28.66;29.58;99317.03;5079239;28;20183;-87
2023/09/10 06:41:18;;;;;;;3.30;1.00;;;;;;;29.16;29.26;99325.00;5078805;28;20233;-87
2023/09/10 06:43:44;;;;;;;3.28;0.93;;;;;;;29.67;28.07;99326.47;5076767;28;20182;-87
2023/09/10 06:46:10;;;;;;;4.13;0.82;;;;;;;30.03;28.63;99336.28;5059023;28;20599;-88
2023/09/10 06:48:37;;;;;;;2.88;1.10;;;;;;;30.29;28.38;99334.50;5075860;28;20184;-88
2023/09/10 06:51:03;;;;;;;5.68;1.15;;;;;;;30.61;27.47;99332.19;5057913;28;20619;-88
2023/09/10 06:53:29;;;;;;;4.50;1.10;;;;;;;30.76;27.01;99338.25;5057931;28;20188;-88
2023/09/10 06:55:57;;;;;;;3.67;1.20;;;;;;;30.74;26.90;99333.03;5075727;28;20177;-88
2023/09/10 06:58:22;;;;;;;3.65;1.45;;;;;;;30.68;26.74;99336.56;5058698;28;20196;-88
2023/09/10 07:00:49;;;;;;;4.68;1.85;;;;;;;30.72;26.66;99343.22;5058180;28;20244;-89
2023/09/10 07:03:16;;;;;;;2.50;1.15;;;;;;;30.70;26.82;99342.59;5075618;28;20541;-88
2023/09/10 07:05:43;;;;;;;3.00;1.13;;;;;;;30.51;26.90;99347.94;5057801;28;20215;-88
2023/09/10 07:08:13;;;;;;;3.28;1.00;;;;;;;30.41;27.20;99338.34;5058055;28;20732;-90
2023/09/10 07:10:40;;;;;;;7.82;1.35;;;;;;;30.29;27.41;99339.13;5058741;28;20226;-87
2023/09/10 07:13:07;;;;;;;5.30;0.93;;;;;;;30.19;27.46;99339.47;5057840;28;20629;-87
2023/09/10 07:15:35;;;;;;;6.80;1.02;;;;;;;30.32;27.27;99338.72;5075391;28;20241;-88
2023/09/10 07:18:03;;;;;;;5.07;1.23;;;;;;;30.29;27.42;99337.22;5075825;28;20177;-87
2023/09/10 07:20:29;;;;;;;8.90;1.38;;;;;;;30.34;27.18;99336.63;5075250;28;20293;-88
2023/09/10 07:22:56;;;;;;;4.97;1.42;;;;;;;30.22;27.32;99336.38;5057872;28;20196;-88
2023/09/10 07:25:22;;;;;;;2.80;1.20;;;;;;;30.18;28.88;99343.22;5057217;28;20184;-88
2023/09/10 07:27:49;;;;;;;2.50;1.13;;;;;;;30.23;27.54;99339.91;5057282;28;20267;-87
2023/09/10 07:30:15;;;;;;;4.07;1.23;;;;;;;30.15;27.68;99334.66;5075612;28;20173;-88
2023/09/10 07:32:42;;;;;;;5.18;1.00;;;;;;;30.17;28.83;99341.53;5057336;28;20610;-88
2023/09/10 07:35:09;;;;;;;4.38;1.35;;;;;;;30.37;27.88;99337.06;5074902;28;20298;-87
2023/09/10 07:37:35;;;;;;;2.78;1.00;;;;;;;30.43;27.74;99330.03;5057584;28;20634;-87
2023/09/10 07:40:01;;;;;;;4.47;1.02;;;;;;;30.54;27.88;99334.03;5057097;28;20575;-88
2023/09/10 07:42:27;;;;;;;2.63;1.02;;;;;;;30.53;27.65;99335.06;5075245;28;20188;-89
2023/09/10 07:44:54;;;;;;;3.38;1.17;;;;;;;30.63;28.47;99330.94;5075311;28;20500;-88
2023/09/10 07:47:21;;;;;;;5.55;1.38;;;;;;;30.79;27.92;99327.84;5074950;28;20181;-87
2023/09/10 07:49:51;;;;;;;4.97;1.60;;;;;;;31.02;27.59;99322.09;5075296;28;20233;-87
2023/09/10 07:52:18;;;;;;;2.88;1.10;;;;;;;30.89;27.38;99325.59;5074706;28;20271;-87
2023/09/10 07:54:43;;;;;;;3.88;1.02;;;;;;;31.13;27.44;99332.31;5055707;28;20177;-87
2023/09/10 07:57:10;;;;;;;6.38;1.00;;;;;;;31.30;27.57;99338.97;5057139;28;20242;-87
2023/09/10 07:59:37;;;;;;;2.60;1.00;;;;;;;31.51;27.66;99329.81;5074452;28;20248;-87
2023/09/10 08:02:04;;;;;;;5.00;1.50;;;;;;;31.62;26.42;99326.47;5074354;28;20622;-88
2023/09/10 08:04:30;;;;;;;4.10;1.30;;;;;;;31.68;26.68;99331.06;5057051;28;20181;-87
2023/09/10 08:06:56;;;;;;;3.47;1.00;;;;;;;31.80;26.96;99334.78;5056551;28;20191;-88
2023/09/10 08:09:22;;;;;;;4.15;1.20;;;;;;;31.98;26.40;99329.53;5074256;28;20169;-87
2023/09/10 08:11:48;;;;;;;2.85;0.77;;;;;;;32.18;26.11;99333.03;5074250;28;20184;-87
2023/09/10 08:14:15;;;;;;;6.13;1.60;;;;;;;32.22;26.25;99328.84;5073875;28;20260;-87
2023/09/10 08:16:44;;;;;;;3.08;1.45;;;;;;;31.95;26.40;99337.25;5074153;28;20173;-87
2023/09/10 08:19:11;;;;;;;2.53;1.10;;;;;;;31.90;26.72;99324.31;5056236;28;20622;-87
2023/09/10 08:21:38;;;;;;;2.95;0.95;;;;;;;31.95;26.74;99323.69;5056789;28;20177;-88
2023/09/10 08:24:04;;;;;;;4.50;0.93;;;;;;;31.67;28.15;99315.84;5073800;28;20185;-88
2023/09/10 08:26:29;;;;;;;2.38;0.93;;;;;;;31.72;27.72;99320.63;5073976;28;20276;-87
2023/09/10 08:28:56;;;;;;;3.67;1.08;;;;;;;31.50;28.86;99320.00;5073915;28;20177;-87
2023/09/10 08:31:23;;;;;;;4.57;1.30;;;;;;;31.44;29.00;99318.13;5056266;28;20188;-88
2023/09/10 08:33:49;;;;;;;3.25;1.23;;;;;;;31.72;27.70;99315.19;5073611;28;20606;-87
2023/09/10 08:36:16;;;;;;;2.83;0.80;;;;;;;32.00;27.51;99308.47;5074021;28;20177;-87
2023/09/10 08:38:43;;;;;;;5.05;0.98;;;;;;;31.89;27.65;99311.00;5056092;28;20184;-87
2023/09/10 08:41:37;;;;;;;6.72;1.42;;;;;;;31.96;27.10;99315.34;5055693;28;20646;-87
2023/09/10 08:44:03;;;;;;;2.58;1.08;;;;;;;31.81;27.20;99322.91;5074171;28;20165;-88
2023/09/10 08:46:31;;;;;;;2.20;1.15;;;;;;;31.94;27.23;99317.44;5056582;28;20192;-87
2023/09/10 08:48:59;;;;;;;2.80;1.17;;;;;;;31.95;26.99;99305.53;5074725;28;20192;-88
2023/09/10 08:51:27;;;;;;;3.95;1.08;;;;;;;32.19;26.90;99310.28;5073534;28;20188;-87
2023/09/10 08:53:56;;;;;;;4.65;0.98;;;;;;;32.02;26.71;99309.09;5073541;28;20191;-88
2023/09/10 08:56:21;;;;;;;3.22;1.40;;;;;;;32.22;27.31;99311.75;5056031;28;20557;-87
2023/09/10 08:58:48;;;;;;;4.30;1.30;;;;;;;32.26;26.92;99307.53;5074011;28;20177;-89
2023/09/10 09:01:14;;;;;;;2.17;1.25;;;;;;;32.27;26.70;99302.94;5056013;28;20217;-87
2023/09/10 09:03:40;;;;;;;3.22;0.93;;;;;;;32.29;27.65;99308.97;5073404;28;20594;-87
2023/09/10 09:06:06;;;;;;;2.47;0.93;;;;;;;32.28;27.01;99310.03;5072976;28;20276;-87
2023/09/10 09:08:36;;;;;;;3.08;1.23;;;;;;;32.30;27.22;99306.06;5055635;28;20666;-86
2023/09/10 09:11:08;;;;;;;3.33;1.23;;;;;;;32.45;26.38;99306.63;5073266;28;20165;-87
2023/09/10 09:13:37;;;;;;;4.35;2.00;;;;;;;32.61;27.35;99305.31;5055912;28;20177;-87
2023/09/10 09:16:05;;;;;;;3.50;1.27;;;;;;;32.83;27.51;99297.66;5055506;28;20188;-88
2023/09/10 09:18:35;;;;;;;3.78;1.33;;;;;;;32.90;27.14;99287.56;5073462;28;20176;-87
2023/09/10 09:21:21;;;;;;;1.65;0.90;;;;;;;32.79;27.17;99300.81;5073619;28;20203;-88
2023/09/10 09:24:01;;;;;;;2.75;1.00;;;;;;;32.94;26.73;99295.03;5053291;28;20227;-88
2023/09/10 09:26:29;;;;;;;3.05;0.95;;;;;;;32.88;26.26;99286.97;5053388;28;20165;-88
2023/09/10 09:28:56;;;;;;;4.22;1.40;;;;;;;33.04;26.22;99278.28;5043631;28;20639;-88
2023/09/10 09:31:24;;;;;;;4.13;1.00;;;;;;;33.03;26.75;99284.75;5072883;28;20197;-87
2023/09/10 09:33:51;;;;;;;3.22;1.10;;;;;;;32.60;27.33;99276.50;5073242;28;20173;-87
2023/09/10 09:36:18;;;;;;;5.45;1.25;;;;;;;32.78;27.03;99279.31;5072753;28;20745;-87
2023/09/10 09:38:49;;;;;;;5.40;1.27;;;;;;;32.52;27.22;99274.03;5072998;28;20173;-86
2023/09/10 09:41:15;;;;;;;3.55;1.35;;;;;;;32.40;26.86;99271.16;5073165;28;20228;-88
2023/09/10 09:43:41;;;;;;;3.08;1.17;;;;;;;32.29;27.89;99276.41;5072692;28;20185;-87
2023/09/10 09:46:08;;;;;;;7.70;1.40;;;;;;;32.64;26.91;99258.72;5072845;28;20173;-86
2023/09/10 09:48:35;;;;;;;5.72;2.08;;;;;;;32.57;26.42;99260.66;5072698;28;20177;-87
2023/09/10 09:51:05;;;;;;;3.25;1.30;;;;;;;32.22;27.47;99271.88;5072868;28;20168;-88
2023/09/10 09:53:33;;;;;;;6.82;1.52;;;;;;;31.90;28.10;99259.25;5072461;28;20256;-86
2023/09/10 09:56:04;;;;;;;2.38;1.08;;;;;;;31.81;28.50;99254.28;5073066;28;20177;-87
2023/09/10 09:58:32;;;;;;;3.90;1.00;;;;;;;31.34;28.91;99261.66;5072831;28;20230;-87
2023/09/10 10:01:00;;;;;;;5.65;1.20;;;;;;;31.42;28.29;99255.19;5040402;28;20564;-88
2023/09/10 10:03:32;;;;;;;4.18;1.25;;;;;;;31.48;28.34;99254.38;5035464;28;20174;-86
2023/09/10 10:05:57;;;;;;;5.47;1.60;;;;;;;31.76;28.52;99244.06;5067947;28;20185;-87
2023/09/10 10:08:28;;;;;;;4.03;1.33;;;;;;;31.82;28.17;99242.38;5068311;28;20307;-87
2023/09/10 10:10:54;;;;;;;3.63;1.25;;;;;;;31.92;28.71;99243.59;5059855;28;20178;-87
2023/09/10 10:13:22;;;;;;;4.18;1.50;;;;;;;32.03;27.57;99233.97;5063483;28;20188;-87
2023/09/10 10:15:50;;;;;;;5.50;1.13;;;;;;;32.18;27.65;99231.84;5054579;28;20192;-86
2023/09/10 10:18:16;;;;;;;3.40;1.20;;;;;;;32.11;27.74;99242.72;5072809;28;20205;-87
2023/09/10 10:20:47;;;;;;;5.80;1.10;;;;;;;31.99;27.22;99230.88;5058906;28;20201;-86
2023/09/10 10:23:18;;;;;;;4.13;1.08;;;;;;;31.85;27.98;99231.94;5076679;28;20163;-87
2023/09/10 10:25:46;;;;;;;5.63;1.20;;;;;;;31.99;27.29;99236.31;5045634;28;20548;-86
2023/09/10 10:28:13;;;;;;;3.03;1.17;;;;;;;31.86;27.44;99228.22;5038650;28;20184;-86
2023/09/10 10:30:51;;;;;;;2.53;1.10;;;;;;;31.88;27.77;99234.25;5064152;28;20173;-86
2023/09/10 10:33:21;;;;;;;2.60;1.00;;;;;;;31.46;27.75;99240.19;5076055;28;20195;-86
2023/09/10 10:36:04;;;;;;;10.85;1.77;;;;;;;31.46;28.17;99240.19;5076077;28;20294;-87
2023/09/10 10:38:34;;;;;;;5.22;1.15;;;;;;;31.56;28.36;99246.00;5075975;28;20521;-86
2023/09/10 10:41:04;;;;;;;12.18;1.73;;;;;;;31.53;29.19;99247.25;5075584;28;20188;-86
2023/09/10 10:43:36;;;;;;;6.05;1.52;;;;;;;31.53;28.66;99238.28;5075761;28;20180;-86
2023/09/10 10:46:05;;;;;;;3.58;0.90;;;;;;;31.52;28.78;99233.94;5075997;28;20149;-87
2023/09/10 10:48:33;;;;;;;2.13;0.80;;;;;;;31.85;28.38;99233.81;5075653;28;20173;-86
2023/09/10 10:51:02;;;;;;;7.13;1.15;;;;;;;31.71;28.64;99241.16;5075821;28;20165;-86
2023/09/10 10:53:30;;;;;;;2.80;1.25;;;;;;;31.82;29.56;99234.25;5058098;28;20181;-86
2023/09/10 10:55:58;;;;;;;3.35;1.25;;;;;;;31.95;29.07;99226.06;5075553;28;20188;-86
2023/09/10 10:58:25;;;;;;;2.25;1.00;;;;;;;32.11;28.81;99236.44;5075723;28;20169;-87
2023/09/10 11:00:57;;;;;;;4.97;1.23;;;;;;;32.09;28.99;99225.84;5076097;28;20516;-89
2023/09/10 11:03:23;;;;;;;2.72;1.10;;;;;;;31.52;30.22;99226.66;5057862;28;20248;-85
2023/09/10 11:05:57;;;;;;;10.07;2.13;;;;;;;31.34;30.61;99220.19;5055554;28;20231;-87
2023/09/10 11:08:48;;;;;;;5.30;1.33;;;;;;;32.06;30.25;99218.13;5037897;28;20529;-87
2023/09/10 11:11:39;;;;;;;3.35;1.17;;;;;;;32.01;30.44;99215.22;5040528;28;20626;-87
2023/09/10 11:14:08;;;;;;;10.95;1.42;;;;;;;31.66;31.50;99210.34;5039365;28;20555;-86
2023/09/10 11:16:42;;;;;;;3.60;1.80;;;;;;;31.14;32.15;99213.94;5037831;28;20554;-86
2023/09/10 11:19:46;;;;;;;4.72;0.98;;;;;;;31.23;31.86;99213.53;5061768;28;20176;-86
2023/09/10 11:22:11;;;;;;;3.75;0.82;;;;;;;31.27;31.95;99203.94;5057692;28;20341;-85
2023/09/10 11:24:40;;;;;;;5.82;1.15;;;;;;;31.13;33.54;99206.91;5075095;28;20318;-87
2023/09/10 11:27:22;;;;;;;4.03;1.65;;;;;;;31.03;34.28;99202.72;5075083;28;20177;-86
2023/09/10 11:30:07;;;;;;;5.18;1.58;;;;;;;31.16;35.41;99201.88;5074807;28;20219;-86
2023/09/10 11:32:35;;;;;;;6.45;1.33;;;;;;;31.44;34.53;99201.63;5074919;28;20658;-85
2023/09/10 11:35:20;;;;;;;4.85;1.60;;;;;;;31.50;34.46;99193.50;5075298;28;20185;-86
2023/09/10 11:37:48;;;;;;;3.00;1.33;;;;;;;31.79;33.07;99191.31;5057345;28;20177;-87
2023/09/10 11:40:17;;;;;;;3.42;1.20;;;;;;;32.20;31.98;99194.47;5057404;28;20208;-87